Detall de PIREP

Printer-friendly versionPDF version

[2008/10/05 13:42:00]
Flight IATA:CT0001
Pilot Number:041
Company ICAO:CAT
Aircraft Type:F50/A
PAX:36
Departing Airport: LEMH
Destination Airport: LEVC
Alternate Airport:LECN
Online: VATSIM
Route:MJV3D A33 GATOS A33 TURIA A33 RIKOS1D
Flight Level:FL080
No Slew and time accel
No pause
Crash detect
Detect pilot in Cockpit between each 30 and 45 minutes
13:42 Zero fuel Weight: 36710 Lbs, Fuel Weight: 4052 Lbs
13:42 VATSIM:LEMH 051330Z 23006KT 170V280 9999 FEW020 21/09 Q1020
13:42 VATSIM:LEVC 051330Z 12010KT 100V160 CAVOK 23/11 Q1018 NOSIG
13:43 VOICE CATALONIAN
13:48 Parking Brakes off
13:59 Take-off
13:59 Take off Weight: 40639 Lbs
13:59 Wind: 229º @ 006 Knots Heading: 189º
13:59 POS N39º 51´ 33´´ E004º 13´ 04´´
13:59 Gear Up: 139 Knots
13:59 Flaps:1 at 140 Knots
14:00 Flaps:0 at 155 Knots
14:09 TOC
14:09 Fuel Weight: 3639 Lb
14:14 Wind:217º@003 Knots Heading: 2
23º Ground Speed: 227 Knots Altitude 7998 ft
14:29 Wind:197º@007 Knots Heading: 270º Ground Speed: 228 Knots Altitude 7965 ft
14:44 Wind:128º@010 Knots Heading: 269º Ground Speed: 238 Knots Altitude 7942 ft
14:46 TOD
14:46 Fuel Weight: 2785 Lb
14:59 Wind:116º@011 Knots Heading: 267º Ground Speed: 235 Knots Altitude 3999 ft
15:14 Wind:116º@010 Knots Heading: 093º Ground Speed: 217 Knots Altitude 5016 ft
15:17 Flaps:1 at 177 Knots
15:17 Gear Down: 164 Knots
15:17 Flaps:2 at 145 Knots
15:18 Flaps:3 at 126 Knots
15:18 Flaps:4 at 111 Knots
15:18 Flaps:5 at 99 Knots
15:21 TouchDown:Rate -83 ft/min Speed: 95 Knots
15:22 Flaps:0 at 62 Knots
15:22 VATSIM:LEVC 051500Z 12010KT CAVOK 23/11 Q1018 NOSIG
15:22 Land
15:22 Wind:119º@010 Knots
15:22 Heading: 116º
15:22 Flight Duration: 01:23
15:22 Landing Weight: 38780 Lbs
15:22 POS N39º 29´ 17´´ W000º 28´ 44´´
15:29 Par
king brakes on
15:29 Block to Block Duration: 01:41
15:29 Final Fuel: 2026 Lbls
15:29 Spent Fuel: 2026 Lbls
15:29 Flight Length: 302 NM
15:29 TOD Land Length: 125 NM

Exportar CSV

Powered by Drupal - Modified by Danger4k